Details From PAFE - KAKE
To PAOH - Hoonah
Flight Number -
Tags decoded
Created
Modified
Stats Distance 84 nm / 155 km
Max Altitude 0 ft / 0 m
Waypoints 2
Social Downloads 1
Likes 0
Share VATSIM

Download

Looking for another format? Having issues loading an existing format? Contact us
Advertisement - Login to hide

Notes

Requested: PAFE PAOH

Route

PAFE PAOH

ID Type Via Altitude Latitude Longitude Leg Dist Tot Dist Heading (true) Name
O PAFE APT - 0 ft / 0 m 56.96136˚ -133.91026˚ - 0 nm - KAKE
O PAOH APT - 0 ft / 0 m 58.09772˚ -135.40514˚ 83 nm 83 nm 325° / 324° Hoonah

Altitude Profile

Advertisement - Login to hide

PAFE

Details ICAO PAFE (AFE)
Name KAKE
Region USA (Alaska)
Timezone America/Juneau (UTC-9.0)
Stats Elevation 172 ft / 52 m (AMSL)
Location 56.961362° -133.910261°
Runways 1
Magnetic Variation 18.849° E

METAR

PAFE 161856Z AUTO 10011G17KT 6SM -RA BR OVC012 04/03 A2957 RMK AO2 SLP024 P0000 T00440033

Decode

TAF

Not found

Departure Runways

ID Width Length Bearing (true) Bearing (mag) Surface Threshold Offset Overrun Length
10 100 ft / 30 m 3,990 ft / 1,216 m 129.93° 111.08° Asphalt 0 ft / 0 m 295 ft / 90 m
28 100 ft / 30 m 3,990 ft / 1,216 m 309.94° 291.09° Asphalt 1,000 ft / 305 m 295 ft / 90 m

PAOH

Details ICAO PAOH (HNH)
Name Hoonah
Region USA (Alaska)
Timezone America/Juneau (UTC-9.0)
Stats Elevation 30 ft / 9 m (AMSL)
Location 58.097715° -135.405136°
Runways 1
Magnetic Variation 19.003° E

METAR

PAOH 161856Z AUTO 00000KT 10SM -RA OVC037 03/03 A2944 RMK AO2 SLP971 P0002 T00330028

Decode

TAF

Not found

Destination Runways

ID Width Length Bearing (true) Bearing (mag) Surface Threshold Offset Overrun Length
05 75 ft / 23 m 3,003 ft / 915 m 77.99° 58.99° Asphalt 0 ft / 0 m 0 ft / 0 m
23 75 ft / 23 m 3,003 ft / 915 m 258.01° 239.01° Asphalt 0 ft / 0 m 0 ft / 0 m